Trent Navigator — PCOV — position and weather

sailwx.info

Track history (hours):
 
Tides and Currents Weather Stations Pressure Air Temp Water Temp Dewpoint Dewpoint Depression Visibility Wind Speed Wind Dir Waves Ship Positions

Trent Navigator

Last reported at 2017-Oct-13 10:18 UTC. Time now 2017-Oct-20 19:45 UTC.
Position N 26°02' W 015°59'.

Length 118 m; draft 5.7 m.

Type: Cargo ship. MMSI: 246867000.

Date/timePositionNaut miles runAvg speedWind from/ knotsBaromVisibWave heightAir tempDewpointWater temp
2017-Oct-13 10:18N 26°02' W 015°59'512.8
2017-Oct-13 09:55N 26°07' W 015°57'2712.6
2017-Oct-13 07:47N 26°32' W 015°46'512.5
2017-Oct-13 07:23N 26°37' W 015°44'4312.4
2017-Oct-13 03:53N 27°17' W 015°27'1512.4
2017-Oct-13 02:40N 27°31' W 015°21'412.9
2017-Oct-13 02:22N 27°35' W 015°20'513.0
2017-Oct-13 02:00N 27°39' W 015°18'613.0
2017-Oct-13 01:30N 27°45' W 015°16'612.2
2017-Oct-13 01:00N 27°52' W 015°15'612.5
2017-Oct-13 00:30N 27°58' W 015°16'612.3
2017-Oct-13 00:00N 28°04' W 015°17'510.7
2017-Oct-12 23:30N 28°07' W 015°22'3 5.9
2017-Oct-12 23:00N 28°09' W 015°25'0 0.0
2017-Oct-12 22:30N 28°09' W 015°25'0 0.0
2017-Oct-12 22:01N 28°09' W 015°25'0 0.0
2017-Oct-12 21:30N 28°09' W 015°25'0 0.0
2017-Oct-12 21:00N 28°09' W 015°25'0 0.0
2017-Oct-12 20:30N 28°09' W 015°25'0 0.0
2017-Oct-12 20:00N 28°09' W 015°25'0 0.0
2017-Oct-12 19:30N 28°09' W 015°25'0 0.7
2017-Oct-12 19:00N 28°08' W 015°25'1 1.3
2017-Oct-12 18:21N 28°09' W 015°25'0 0.0
2017-Oct-12 17:48N 28°09' W 015°25'0 0.0
2017-Oct-12 17:24N 28°09' W 015°25'0 0.0
2017-Oct-12 16:54N 28°09' W 015°25'0 0.0
2017-Oct-12 16:24N 28°09' W 015°25'0 0.0
2017-Oct-12 15:54N 28°09' W 015°25'0 0.0
2017-Oct-12 15:24N 28°09' W 015°25'0 0.0
2017-Oct-12 14:54N 28°09' W 015°25'0 0.0
2017-Oct-12 14:27N 28°09' W 015°25'0 0.0
2017-Oct-12 13:57N 28°09' W 015°25'0 0.0
2017-Oct-12 13:27N 28°09' W 015°25'0 0.0
2017-Oct-12 12:57N 28°09' W 015°25'0 0.0
2017-Oct-12 12:27N 28°09' W 015°25'0 0.0
2017-Oct-12 11:54N 28°09' W 015°25'0 0.0
2017-Oct-12 11:27N 28°09' W 015°25'0 0.0
2017-Oct-12 11:00N 28°09' W 015°25'0 0.2
2017-Oct-12 10:31N 28°09' W 015°25'3 5.3
2017-Oct-12 10:01N 28°07' W 015°23'4 8.2
2017-Oct-12 09:31N 28°07' W 015°18'510.8
2017-Oct-12 09:01N 28°12' W 015°16'510.9
2017-Oct-12 08:30N 28°18' W 015°14'510.9
2017-Oct-12 08:01N 28°23' W 015°13'510.6
2017-Oct-12 07:31N 28°28' W 015°11'510.7
2017-Oct-12 07:01N 28°33' W 015°09'510.7
2017-Oct-12 06:31N 28°38' W 015°08'510.8
2017-Oct-12 06:00N 28°43' W 015°05'510.8
2017-Oct-12 05:30N 28°48' W 015°03'510.9
2017-Oct-12 05:01N 28°54' W 015°02'510.7
2017-Oct-12 04:30N 28°59' W 014°60'510.7
2017-Oct-12 04:01N 29°04' W 014°58'510.8
2017-Oct-12 03:30N 29°09' W 014°56'611.1
2017-Oct-12 03:00N 29°14' W 014°54'611.2
2017-Oct-12 02:30N 29°20' W 014°52'611.4
2017-Oct-12 02:00N 29°25' W 014°50'611.3
2017-Oct-12 01:30N 29°31' W 014°48'611.3
2017-Oct-12 01:00N 29°36' W 014°46'611.4
2017-Oct-12 00:30N 29°41' W 014°44'611.3
2017-Oct-12 00:00N 29°47' W 014°42'611.0
2017-Oct-11 23:30N 29°52' W 014°41'710.9
2017-Oct-11 22:53N 29°58' W 014°38'410.9
2017-Oct-11 22:29N 30°03' W 014°37'711.3
2017-Oct-11 21:51N 30°09' W 014°34'411.6
2017-Oct-11 21:29N 30°13' W 014°33'611.6
2017-Oct-11 20:58N 30°19' W 014°31'611.6
2017-Oct-11 20:29N 30°25' W 014°29'912.1
2017-Oct-11 19:45N 30°33' W 014°26'511.9
2017-Oct-11 19:17N 30°38' W 014°24'1012.0
2017-Oct-11 18:26N 30°48' W 014°20'711.8
2017-Oct-11 17:48N 30°55' W 014°18'811.8
2017-Oct-11 17:06N 31°03' W 014°15'511.9
2017-Oct-11 16:39N 31°08' W 014°13'23911.4
2017-Oct-10 19:48N 34°56' W 012°49'411.5
2017-Oct-10 19:29N 34°60' W 012°48'711.6
2017-Oct-10 18:54N 35°06' W 012°46'511.7
2017-Oct-10 18:30N 35°11' W 012°44'711.7
2017-Oct-10 17:55N 35°17' W 012°42'511.3
2017-Oct-10 17:30N 35°22' W 012°40'611.3
2017-Oct-10 17:00N 35°27' W 012°38'611.4
2017-Oct-10 16:30N 35°33' W 012°37'611.8
2017-Oct-10 16:00N 35°38' W 012°35'612.1
2017-Oct-10 15:30N 35°44' W 012°33'611.8
2017-Oct-10 15:00N 35°50' W 012°31'1212.1
2017-Oct-10 14:00N 36°02' W 012°27'1711.9
2017-Oct-10 12:34N 36°18' W 012°21'111.5
2017-Oct-10 12:30N 36°19' W 012°21'611.7
2017-Oct-10 12:00N 36°24' W 012°19'611.9
2017-Oct-10 11:30N 36°30' W 012°17'612.0
2017-Oct-10 11:00N 36°36' W 012°15'611.8
2017-Oct-10 10:30N 36°41' W 012°13'611.6
2017-Oct-10 10:00N 36°47' W 012°11'612.0
2017-Oct-10 09:31N 36°53' W 012°09'611.7
2017-Oct-10 09:00N 36°58' W 012°07'611.6
2017-Oct-10 08:28N 37°05' W 012°05'511.3
2017-Oct-10 08:00N 37°10' W 012°03'611.3
2017-Oct-10 07:30N 37°15' W 012°01'611.5
2017-Oct-10 07:00N 37°21' W 011°60'611.6
2017-Oct-10 06:30N 37°26' W 011°58'611.8
2017-Oct-10 06:00N 37°32' W 011°56'611.5
2017-Oct-10 05:30N 37°37' W 011°54'611.5
2017-Oct-10 04:57N 37°43' W 011°52'511.8
2017-Oct-10 04:30N 37°49' W 011°50'611.9
2017-Oct-10 04:00N 37°54' W 011°48'611.4
2017-Oct-10 03:30N 37°60' W 011°46'611.5
2017-Oct-10 03:00N 38°05' W 011°44'611.8
2017-Oct-10 02:30N 38°11' W 011°42'612.1
2017-Oct-10 02:00N 38°17' W 011°40'612.3
2017-Oct-10 01:30N 38°23' W 011°38'611.9
2017-Oct-10 01:00N 38°29' W 011°36'611.9
2017-Oct-10 00:30N 38°34' W 011°34'612.1
2017-Oct-10 00:00N 38°40' W 011°32'611.7
2017-Oct-09 23:30N 38°46' W 011°30'611.7
2017-Oct-09 23:00N 38°51' W 011°28'611.6
2017-Oct-09 22:30N 38°57' W 011°26'611.7
2017-Oct-09 22:00N 39°03' W 011°24'611.7
2017-Oct-09 21:30N 39°08' W 011°22'611.7
2017-Oct-09 21:01N 39°14' W 011°20'611.7
2017-Oct-09 20:30N 39°20' W 011°18'611.7
2017-Oct-09 20:00N 39°25' W 011°16'611.4
2017-Oct-09 19:30N 39°31' W 011°14'611.3
2017-Oct-09 19:00N 39°36' W 011°12'511.0
2017-Oct-09 18:30N 39°41' W 011°10'611.2
2017-Oct-09 18:00N 39°47' W 011°08'611.4
2017-Oct-09 17:30N 39°52' W 011°07'611.3
2017-Oct-09 17:00N 39°58' W 011°05'611.2
2017-Oct-09 16:30N 40°03' W 011°03'611.1
2017-Oct-09 16:00N 40°09' W 011°01'510.9
2017-Oct-09 15:30N 40°14' W 010°59'611.1
2017-Oct-09 15:00N 40°19' W 010°57'611.5
2017-Oct-09 14:30N 40°25' W 010°55'611.7
2017-Oct-09 14:00N 40°30' W 010°53'611.9
2017-Oct-09 13:30N 40°36' W 010°51'611.8
2017-Oct-09 12:58N 40°42' W 010°49'611.9
2017-Oct-09 12:30N 40°48' W 010°47'611.8
2017-Oct-09 12:00N 40°53' W 010°45'612.0
2017-Oct-09 11:30N 40°59' W 010°43'611.8
2017-Oct-09 11:00N 41°05' W 010°41'611.8
2017-Oct-09 10:30N 41°10' W 010°38'911.2
2017-Oct-09 09:41N 41°19' W 010°35'211.2
2017-Oct-09 09:30N 41°21' W 010°35'711.3
2017-Oct-09 08:54N 41°28' W 010°32'411.3
2017-Oct-09 08:30N 41°32' W 010°31'611.6
2017-Oct-09 08:00N 41°38' W 010°29'611.9
2017-Oct-09 07:30N 41°44' W 010°27'611.8
2017-Oct-09 07:00N 41°49' W 010°25'711.2
2017-Oct-09 06:21N 41°56' W 010°23'411.3
2017-Oct-09 06:00N 42°00' W 010°21'611.2
2017-Oct-09 05:30N 42°05' W 010°18'510.9
2017-Oct-09 05:00N 42°11' W 010°16'44111.1
2017-Oct-07 13:20N 48°51' W 005°52'4411.8
2017-Oct-07 09:36N 49°12' W 004°53'611.9
2017-Oct-07 09:05N 49°15' W 004°44'411.4
2017-Oct-07 08:42N 49°16' W 004°38'910.6
2017-Oct-07 07:52N 49°21' W 004°26'15 9.3
2017-Oct-07 06:18N 49°29' W 004°08'4 8.8
2017-Oct-07 05:53N 49°31' W 004°03'5 8.6
2017-Oct-07 05:18N 49°34' W 003°56'5 8.9
2017-Oct-07 04:45N 49°36' W 003°50'4 9.4
2017-Oct-07 04:21N 49°38' W 003°45'4 9.8
2017-Oct-07 03:54N 49°41' W 003°40'510.4
2017-Oct-07 03:26N 49°44' W 003°33'611.3
2017-Oct-07 02:53N 49°47' W 003°25'512.0
2017-Oct-07 02:28N 49°50' W 003°19'612.5
2017-Oct-07 02:00N 49°53' W 003°11'612.9
2017-Oct-07 01:30N 49°56' W 003°03'712.9
2017-Oct-07 01:00N 49°59' W 002°54'812.9
2017-Oct-07 00:25N 50°01' W 002°43'712.2
2017-Oct-06 23:50N 50°03' W 002°32'411.5
2017-Oct-06 23:30N 50°04' W 002°26'610.7
2017-Oct-06 22:54N 50°06' W 002°17'73 9.8
2017-Oct-06 15:28N 50°27' W 000°27'613.6
2017-Oct-06 15:00N 50°29' W 000°18'713.2
2017-Oct-06 14:31N 50°30' W 000°08'713.3
2017-Oct-06 14:00N 50°32' E 000°02'713.1
2017-Oct-06 13:30N 50°34' E 000°12'612.9
2017-Oct-06 13:00N 50°36' E 000°22'612.6
2017-Oct-06 12:31N 50°37' E 000°31'611.9
2017-Oct-06 12:01N 50°40' E 000°40'611.8
2017-Oct-06 11:31N 50°44' E 000°47'611.5
2017-Oct-06 11:01N 50°47' E 000°54'611.3
2017-Oct-06 10:28N 50°51' E 001°02'511.4
2017-Oct-06 10:00N 50°54' E 001°09'611.9
2017-Oct-06 09:31N 50°58' E 001°16'713.7
2017-Oct-06 09:00N 51°02' E 001°24'815.5
2017-Oct-06 08:30N 51°07' E 001°33'815.5
2017-Oct-06 08:01N 51°12' E 001°43'714.9
2017-Oct-06 07:31N 51°18' E 001°50'714.3
2017-Oct-06 07:01N 51°25' E 001°54'612.9
2017-Oct-06 06:31N 51°30' E 002°01'612.3
2017-Oct-06 06:00N 51°34' E 002°08'611.8
2017-Oct-06 05:30N 51°39' E 002°14'611.3
2017-Oct-06 05:01N 51°43' E 002°20'47 8.9
2017-Oct-05 23:42N 52°04' E 003°29'2 9.4
2017-Oct-05 23:29N 52°04' E 003°32'5 9.6
2017-Oct-05 23:00N 52°03' E 003°40'5 9.8
2017-Oct-05 22:31N 52°03' E 003°48'5 9.7
2017-Oct-05 22:00N 52°03' E 003°55'5 9.1
2017-Oct-05 21:30N 52°00' E 004°02'4 8.8
2017-Oct-05 21:00N 51°58' E 004°08'1 2.0
2017-Oct-05 20:26N 51°57' E 004°09'0 0.0
2017-Oct-05 19:56N 51°57' E 004°09'0 0.0
2017-Oct-05 19:29N 51°57' E 004°09'0 0.0
2017-Oct-05 18:59N 51°57' E 004°09'0 0.0
2017-Oct-05 18:29N 51°57' E 004°09'0 0.0
2017-Oct-05 17:59N 51°57' E 004°09'0 0.0
2017-Oct-05 17:29N 51°57' E 004°09'0 0.0
2017-Oct-05 16:59N 51°57' E 004°09'0 0.0
2017-Oct-05 15:29N 51°57' E 004°09'0 0.0
2017-Oct-05 14:59N 51°57' E 004°09'0 0.0
2017-Oct-05 14:29N 51°57' E 004°09'0 0.0
2017-Oct-05 13:59N 51°57' E 004°09'0 0.0
2017-Oct-05 13:29N 51°57' E 004°09'0 0.0
2017-Oct-05 12:59N 51°57' E 004°09'0 0.0
2017-Oct-05 12:26N 51°57' E 004°09'0 0.0
2017-Oct-05 11:59N 51°57' E 004°09'0 0.0
2017-Oct-05 11:29N 51°57' E 004°09'0 0.0
2017-Oct-05 10:56N 51°57' E 004°09'0 0.0
2017-Oct-05 10:29N 51°57' E 004°09'0 0.0
2017-Oct-05 09:59N 51°57' E 004°09'0 0.0
2017-Oct-05 09:29N 51°57' E 004°09'0 0.0
2017-Oct-05 08:59N 51°57' E 004°09'0 0.0
2017-Oct-05 08:29N 51°57' E 004°09'0 0.0
2017-Oct-05 07:59N 51°57' E 004°09'0 0.0
2017-Oct-05 07:26N 51°57' E 004°09'0 0.0
2017-Oct-05 06:59N 51°57' E 004°09'0 0.0
2017-Oct-05 06:29N 51°57' E 004°09'0 0.0
2017-Oct-05 05:59N 51°57' E 004°09'0 0.0
2017-Oct-05 05:29N 51°57' E 004°09'0 0.0
2017-Oct-05 04:59N 51°57' E 004°09'0 0.0
2017-Oct-05 04:29N 51°57' E 004°09'0 0.0
2017-Oct-05 03:59N 51°57' E 004°09'0 0.0
2017-Oct-05 03:29N 51°57' E 004°09'0 0.0
2017-Oct-05 02:56N 51°57' E 004°09'0 0.0
2017-Oct-05 02:29N 51°57' E 004°09'0 0.0
2017-Oct-05 01:59N 51°57' E 004°09'0 0.0
2017-Oct-05 01:29N 51°57' E 004°09'0 0.0
2017-Oct-05 00:59N 51°57' E 004°09'0 0.0
2017-Oct-05 00:29N 51°57' E 004°09'0 0.0
2017-Oct-04 23:59N 51°57' E 004°09'0 0.0
2017-Oct-04 23:29N 51°57' E 004°09'0 0.0
2017-Oct-04 22:59N 51°57' E 004°09'0 0.0
2017-Oct-04 22:29N 51°57' E 004°09'0 0.0
2017-Oct-04 21:59N 51°57' E 004°09'0 0.0
2017-Oct-04 21:30N 51°57' E 004°09'0 0.0
2017-Oct-04 21:00N 51°57' E 004°09'0 0.0
2017-Oct-04 20:30N 51°57' E 004°09'1 2.4
2017-Oct-04 20:00N 51°58' E 004°08'1 1.5
2017-Oct-04 19:30N 51°58' E 004°09'611.2
2017-Oct-04 19:00N 51°54' E 004°16'4 8.6
2017-Oct-04 18:30N 51°51' E 004°21'510.0
2017-Oct-04 18:00N 51°50' E 004°28'510.6
2017-Oct-04 17:30N 51°48' E 004°37'5 9.1
2017-Oct-04 17:00N 51°44' E 004°38'3 5.2
2017-Oct-04 16:30N 51°41' E 004°36'0 0.2
2017-Oct-04 15:58N 51°41' E 004°36'0 0.0
2017-Oct-04 15:25N 51°41' E 004°36'0 0.0
2017-Oct-04 14:58N 51°41' E 004°36'0 0.0
2017-Oct-04 14:28N 51°41' E 004°36'0 0.0
2017-Oct-04 13:55N 51°41' E 004°36'0 0.0
2017-Oct-04 13:28N 51°41' E 004°36'0 0.0
2017-Oct-04 12:58N 51°41' E 004°36'0 0.0
2017-Oct-04 12:25N 51°41' E 004°36'0 0.0
2017-Oct-04 11:55N 51°41' E 004°36'0 0.0
2017-Oct-04 11:28N 51°41' E 004°36'0 0.0
2017-Oct-04 10:58N 51°41' E 004°36'0 0.0
2017-Oct-04 10:28N 51°41' E 004°36'0 0.0
2017-Oct-04 09:58N 51°41' E 004°36'0 0.0
2017-Oct-04 09:19N 51°41' E 004°36'0 0.0
2017-Oct-04 08:58N 51°41' E 004°36'0 0.0
2017-Oct-04 08:25N 51°41' E 004°36'0 0.0
2017-Oct-04 07:58N 51°41' E 004°36'0 0.0
2017-Oct-04 07:28N 51°41' E 004°36'0 0.0
2017-Oct-04 06:52N 51°41' E 004°36'0 0.0
2017-Oct-04 06:28N 51°41' E 004°36'0 0.0
2017-Oct-04 05:49N 51°41' E 004°36'0 0.0
2017-Oct-04 05:28N 51°41' E 004°36'0 0.0
2017-Oct-04 04:58N 51°41' E 004°36'0 0.0
2017-Oct-04 04:28N 51°41' E 004°36'0 0.0
2017-Oct-04 03:58N 51°41' E 004°36'0 0.0
2017-Oct-04 03:28N 51°41' E 004°36'0 0.0
2017-Oct-04 02:58N 51°41' E 004°36'0 0.0
2017-Oct-04 02:28N 51°41' E 004°36'0 0.0
2017-Oct-04 01:55N 51°41' E 004°36'0 0.0
2017-Oct-04 01:28N 51°41' E 004°36'0 0.0
2017-Oct-04 00:52N 51°41' E 004°36'0 0.0
2017-Oct-04 00:16N 51°41' E 004°36'0 0.0
2017-Oct-03 23:58N 51°41' E 004°36'0 0.0
2017-Oct-03 23:16N 51°41' E 004°36'0 0.0
2017-Oct-03 22:58N 51°41' E 004°36'0 0.0
2017-Oct-03 22:28N 51°41' E 004°36'0 0.0
2017-Oct-03 21:49N 51°41' E 004°36'0 0.0
2017-Oct-03 21:28N 51°41' E 004°36'0 0.0
2017-Oct-03 20:58N 51°41' E 004°36'0 0.0
2017-Oct-03 20:22N 51°41' E 004°36'0 0.0
2017-Oct-03 19:58N 51°41' E 004°36'0 0.0
2017-Oct-03 19:22N 51°41' E 004°36'0 0.0
2017-Oct-03 18:58N 51°41' E 004°36'0 0.0
2017-Oct-03 18:28N 51°41' E 004°36'0 0.0
2017-Oct-03 17:58N 51°41' E 004°36'0 0.0
2017-Oct-03 17:28N 51°41' E 004°36'0 0.0
2017-Oct-03 16:58N 51°41' E 004°36'0 0.0
2017-Oct-03 16:28N 51°41' E 004°36'0 0.0
2017-Oct-03 15:58N 51°41' E 004°36'0 0.0
2017-Oct-03 15:28N 51°41' E 004°36'0 0.0
2017-Oct-03 14:58N 51°41' E 004°36'0 0.0
2017-Oct-03 13:58N 51°41' E 004°36'0 0.0
2017-Oct-03 13:28N 51°41' E 004°36'0 0.0
2017-Oct-03 12:58N 51°41' E 004°36'0 0.0
2017-Oct-03 12:25N 51°41' E 004°36'0 0.0
2017-Oct-03 11:58N 51°41' E 004°36'0 0.0
2017-Oct-03 11:28N 51°41' E 004°36'0 0.0
2017-Oct-03 10:55N 51°41' E 004°36'0 0.0
2017-Oct-03 10:22N 51°41' E 004°36'  
Track history (hours):
 
Tides and Currents Weather Stations Pressure Air Temp Water Temp Dewpoint Dewpoint Depression Visibility Wind Speed Wind Dir Waves Ship Positions

Trent Navigator

Last reported at 2017-Oct-13 10:18 UTC. Time now 2017-Oct-20 19:45 UTC.
Position N 26°02' W 015°59'.

Length 118 m; draft 5.7 m.

Type: Cargo ship. MMSI: 246867000.

Date/timePositionNaut miles runAvg speedWind from/ knotsBaromVisibWave heightAir tempDewpointWater temp
2017-Oct-13 10:18N 26°02' W 015°59'512.8
2017-Oct-13 09:55N 26°07' W 015°57'2712.6
2017-Oct-13 07:47N 26°32' W 015°46'512.5
2017-Oct-13 07:23N 26°37' W 015°44'4312.4
2017-Oct-13 03:53N 27°17' W 015°27'1512.4
2017-Oct-13 02:40N 27°31' W 015°21'412.9
2017-Oct-13 02:22N 27°35' W 015°20'513.0
2017-Oct-13 02:00N 27°39' W 015°18'613.0
2017-Oct-13 01:30N 27°45' W 015°16'612.2
2017-Oct-13 01:00N 27°52' W 015°15'612.5
2017-Oct-13 00:30N 27°58' W 015°16'612.3
2017-Oct-13 00:00N 28°04' W 015°17'510.7
2017-Oct-12 23:30N 28°07' W 015°22'3 5.9
2017-Oct-12 23:00N 28°09' W 015°25'0 0.0
2017-Oct-12 22:30N 28°09' W 015°25'0 0.0
2017-Oct-12 22:01N 28°09' W 015°25'0 0.0
2017-Oct-12 21:30N 28°09' W 015°25'0 0.0
2017-Oct-12 21:00N 28°09' W 015°25'0 0.0
2017-Oct-12 20:30N 28°09' W 015°25'0 0.0
2017-Oct-12 20:00N 28°09' W 015°25'0 0.0
2017-Oct-12 19:30N 28°09' W 015°25'0 0.7
2017-Oct-12 19:00N 28°08' W 015°25'1 1.3
2017-Oct-12 18:21N 28°09' W 015°25'0 0.0
2017-Oct-12 17:48N 28°09' W 015°25'0 0.0
2017-Oct-12 17:24N 28°09' W 015°25'0 0.0
2017-Oct-12 16:54N 28°09' W 015°25'0 0.0
2017-Oct-12 16:24N 28°09' W 015°25'0 0.0
2017-Oct-12 15:54N 28°09' W 015°25'0 0.0
2017-Oct-12 15:24N 28°09' W 015°25'0 0.0
2017-Oct-12 14:54N 28°09' W 015°25'0 0.0
2017-Oct-12 14:27N 28°09' W 015°25'0 0.0
2017-Oct-12 13:57N 28°09' W 015°25'0 0.0
2017-Oct-12 13:27N 28°09' W 015°25'0 0.0
2017-Oct-12 12:57N 28°09' W 015°25'0 0.0
2017-Oct-12 12:27N 28°09' W 015°25'0 0.0
2017-Oct-12 11:54N 28°09' W 015°25'0 0.0
2017-Oct-12 11:27N 28°09' W 015°25'0 0.0
2017-Oct-12 11:00N 28°09' W 015°25'0 0.2
2017-Oct-12 10:31N 28°09' W 015°25'3 5.3
2017-Oct-12 10:01N 28°07' W 015°23'4 8.2
2017-Oct-12 09:31N 28°07' W 015°18'510.8
2017-Oct-12 09:01N 28°12' W 015°16'510.9
2017-Oct-12 08:30N 28°18' W 015°14'510.9
2017-Oct-12 08:01N 28°23' W 015°13'510.6
2017-Oct-12 07:31N 28°28' W 015°11'510.7
2017-Oct-12 07:01N 28°33' W 015°09'510.7
2017-Oct-12 06:31N 28°38' W 015°08'510.8
2017-Oct-12 06:00N 28°43' W 015°05'510.8
2017-Oct-12 05:30N 28°48' W 015°03'510.9
2017-Oct-12 05:01N 28°54' W 015°02'510.7
2017-Oct-12 04:30N 28°59' W 014°60'510.7
2017-Oct-12 04:01N 29°04' W 014°58'510.8
2017-Oct-12 03:30N 29°09' W 014°56'611.1
2017-Oct-12 03:00N 29°14' W 014°54'611.2
2017-Oct-12 02:30N 29°20' W 014°52'611.4
2017-Oct-12 02:00N 29°25' W 014°50'611.3
2017-Oct-12 01:30N 29°31' W 014°48'611.3
2017-Oct-12 01:00N 29°36' W 014°46'611.4
2017-Oct-12 00:30N 29°41' W 014°44'611.3
2017-Oct-12 00:00N 29°47' W 014°42'611.0
2017-Oct-11 23:30N 29°52' W 014°41'710.9
2017-Oct-11 22:53N 29°58' W 014°38'410.9
2017-Oct-11 22:29N 30°03' W 014°37'711.3
2017-Oct-11 21:51N 30°09' W 014°34'411.6
2017-Oct-11 21:29N 30°13' W 014°33'611.6
2017-Oct-11 20:58N 30°19' W 014°31'611.6
2017-Oct-11 20:29N 30°25' W 014°29'912.1
2017-Oct-11 19:45N 30°33' W 014°26'511.9
2017-Oct-11 19:17N 30°38' W 014°24'1012.0
2017-Oct-11 18:26N 30°48' W 014°20'711.8
2017-Oct-11 17:48N 30°55' W 014°18'811.8
2017-Oct-11 17:06N 31°03' W 014°15'511.9
2017-Oct-11 16:39N 31°08' W 014°13'23911.4
2017-Oct-10 19:48N 34°56' W 012°49'411.5
2017-Oct-10 19:29N 34°60' W 012°48'711.6
2017-Oct-10 18:54N 35°06' W 012°46'511.7
2017-Oct-10 18:30N 35°11' W 012°44'711.7
2017-Oct-10 17:55N 35°17' W 012°42'511.3
2017-Oct-10 17:30N 35°22' W 012°40'611.3
2017-Oct-10 17:00N 35°27' W 012°38'611.4
2017-Oct-10 16:30N 35°33' W 012°37'611.8
2017-Oct-10 16:00N 35°38' W 012°35'612.1
2017-Oct-10 15:30N 35°44' W 012°33'611.8
2017-Oct-10 15:00N 35°50' W 012°31'1212.1
2017-Oct-10 14:00N 36°02' W 012°27'1711.9
2017-Oct-10 12:34N 36°18' W 012°21'111.5
2017-Oct-10 12:30N 36°19' W 012°21'611.7
2017-Oct-10 12:00N 36°24' W 012°19'611.9
2017-Oct-10 11:30N 36°30' W 012°17'612.0
2017-Oct-10 11:00N 36°36' W 012°15'611.8
2017-Oct-10 10:30N 36°41' W 012°13'611.6
2017-Oct-10 10:00N 36°47' W 012°11'612.0
2017-Oct-10 09:31N 36°53' W 012°09'611.7
2017-Oct-10 09:00N 36°58' W 012°07'611.6
2017-Oct-10 08:28N 37°05' W 012°05'511.3
2017-Oct-10 08:00N 37°10' W 012°03'611.3
2017-Oct-10 07:30N 37°15' W 012°01'611.5
2017-Oct-10 07:00N 37°21' W 011°60'611.6
2017-Oct-10 06:30N 37°26' W 011°58'611.8
2017-Oct-10 06:00N 37°32' W 011°56'611.5
2017-Oct-10 05:30N 37°37' W 011°54'611.5
2017-Oct-10 04:57N 37°43' W 011°52'511.8
2017-Oct-10 04:30N 37°49' W 011°50'611.9
2017-Oct-10 04:00N 37°54' W 011°48'611.4
2017-Oct-10 03:30N 37°60' W 011°46'611.5
2017-Oct-10 03:00N 38°05' W 011°44'611.8
2017-Oct-10 02:30N 38°11' W 011°42'612.1
2017-Oct-10 02:00N 38°17' W 011°40'612.3
2017-Oct-10 01:30N 38°23' W 011°38'611.9
2017-Oct-10 01:00N 38°29' W 011°36'611.9
2017-Oct-10 00:30N 38°34' W 011°34'612.1
2017-Oct-10 00:00N 38°40' W 011°32'611.7
2017-Oct-09 23:30N 38°46' W 011°30'611.7
2017-Oct-09 23:00N 38°51' W 011°28'611.6
2017-Oct-09 22:30N 38°57' W 011°26'611.7
2017-Oct-09 22:00N 39°03' W 011°24'611.7
2017-Oct-09 21:30N 39°08' W 011°22'611.7
2017-Oct-09 21:01N 39°14' W 011°20'611.7
2017-Oct-09 20:30N 39°20' W 011°18'611.7
2017-Oct-09 20:00N 39°25' W 011°16'611.4
2017-Oct-09 19:30N 39°31' W 011°14'611.3
2017-Oct-09 19:00N 39°36' W 011°12'511.0
2017-Oct-09 18:30N 39°41' W 011°10'611.2
2017-Oct-09 18:00N 39°47' W 011°08'611.4
2017-Oct-09 17:30N 39°52' W 011°07'611.3
2017-Oct-09 17:00N 39°58' W 011°05'611.2
2017-Oct-09 16:30N 40°03' W 011°03'611.1
2017-Oct-09 16:00N 40°09' W 011°01'510.9
2017-Oct-09 15:30N 40°14' W 010°59'611.1
2017-Oct-09 15:00N 40°19' W 010°57'611.5
2017-Oct-09 14:30N 40°25' W 010°55'611.7
2017-Oct-09 14:00N 40°30' W 010°53'611.9
2017-Oct-09 13:30N 40°36' W 010°51'611.8
2017-Oct-09 12:58N 40°42' W 010°49'611.9
2017-Oct-09 12:30N 40°48' W 010°47'611.8
2017-Oct-09 12:00N 40°53' W 010°45'612.0
2017-Oct-09 11:30N 40°59' W 010°43'611.8
2017-Oct-09 11:00N 41°05' W 010°41'611.8
2017-Oct-09 10:30N 41°10' W 010°38'911.2
2017-Oct-09 09:41N 41°19' W 010°35'211.2
2017-Oct-09 09:30N 41°21' W 010°35'711.3
2017-Oct-09 08:54N 41°28' W 010°32'411.3
2017-Oct-09 08:30N 41°32' W 010°31'611.6
2017-Oct-09 08:00N 41°38' W 010°29'611.9
2017-Oct-09 07:30N 41°44' W 010°27'611.8
2017-Oct-09 07:00N 41°49' W 010°25'711.2
2017-Oct-09 06:21N 41°56' W 010°23'411.3
2017-Oct-09 06:00N 42°00' W 010°21'611.2
2017-Oct-09 05:30N 42°05' W 010°18'510.9
2017-Oct-09 05:00N 42°11' W 010°16'44111.1
2017-Oct-07 13:20N 48°51' W 005°52'4411.8
2017-Oct-07 09:36N 49°12' W 004°53'611.9
2017-Oct-07 09:05N 49°15' W 004°44'411.4
2017-Oct-07 08:42N 49°16' W 004°38'910.6
2017-Oct-07 07:52N 49°21' W 004°26'15 9.3
2017-Oct-07 06:18N 49°29' W 004°08'4 8.8
2017-Oct-07 05:53N 49°31' W 004°03'5 8.6
2017-Oct-07 05:18N 49°34' W 003°56'5 8.9
2017-Oct-07 04:45N 49°36' W 003°50'4 9.4
2017-Oct-07 04:21N 49°38' W 003°45'4 9.8
2017-Oct-07 03:54N 49°41' W 003°40'510.4
2017-Oct-07 03:26N 49°44' W 003°33'611.3
2017-Oct-07 02:53N 49°47' W 003°25'512.0
2017-Oct-07 02:28N 49°50' W 003°19'612.5
2017-Oct-07 02:00N 49°53' W 003°11'612.9
2017-Oct-07 01:30N 49°56' W 003°03'712.9
2017-Oct-07 01:00N 49°59' W 002°54'812.9
2017-Oct-07 00:25N 50°01' W 002°43'712.2
2017-Oct-06 23:50N 50°03' W 002°32'411.5
2017-Oct-06 23:30N 50°04' W 002°26'610.7
2017-Oct-06 22:54N 50°06' W 002°17'73 9.8
2017-Oct-06 15:28N 50°27' W 000°27'613.6
2017-Oct-06 15:00N 50°29' W 000°18'713.2
2017-Oct-06 14:31N 50°30' W 000°08'713.3
2017-Oct-06 14:00N 50°32' E 000°02'713.1
2017-Oct-06 13:30N 50°34' E 000°12'612.9
2017-Oct-06 13:00N 50°36' E 000°22'612.6
2017-Oct-06 12:31N 50°37' E 000°31'611.9
2017-Oct-06 12:01N 50°40' E 000°40'611.8
2017-Oct-06 11:31N 50°44' E 000°47'611.5
2017-Oct-06 11:01N 50°47' E 000°54'611.3
2017-Oct-06 10:28N 50°51' E 001°02'511.4
2017-Oct-06 10:00N 50°54' E 001°09'611.9
2017-Oct-06 09:31N 50°58' E 001°16'713.7
2017-Oct-06 09:00N 51°02' E 001°24'815.5
2017-Oct-06 08:30N 51°07' E 001°33'815.5
2017-Oct-06 08:01N 51°12' E 001°43'714.9
2017-Oct-06 07:31N 51°18' E 001°50'714.3
2017-Oct-06 07:01N 51°25' E 001°54'612.9
2017-Oct-06 06:31N 51°30' E 002°01'612.3
2017-Oct-06 06:00N 51°34' E 002°08'611.8
2017-Oct-06 05:30N 51°39' E 002°14'611.3
2017-Oct-06 05:01N 51°43' E 002°20'47 8.9
2017-Oct-05 23:42N 52°04' E 003°29'2 9.4
2017-Oct-05 23:29N 52°04' E 003°32'5 9.6
2017-Oct-05 23:00N 52°03' E 003°40'5 9.8
2017-Oct-05 22:31N 52°03' E 003°48'5 9.7
2017-Oct-05 22:00N 52°03' E 003°55'5 9.1
2017-Oct-05 21:30N 52°00' E 004°02'4 8.8
2017-Oct-05 21:00N 51°58' E 004°08'1 2.0
2017-Oct-05 20:26N 51°57' E 004°09'0 0.0
2017-Oct-05 19:56N 51°57' E 004°09'0 0.0
2017-Oct-05 19:29N 51°57' E 004°09'0 0.0
2017-Oct-05 18:59N 51°57' E 004°09'0 0.0
2017-Oct-05 18:29N 51°57' E 004°09'0 0.0
2017-Oct-05 17:59N 51°57' E 004°09'0 0.0
2017-Oct-05 17:29N 51°57' E 004°09'0 0.0
2017-Oct-05 16:59N 51°57' E 004°09'0 0.0
2017-Oct-05 15:29N 51°57' E 004°09'0 0.0
2017-Oct-05 14:59N 51°57' E 004°09'0 0.0
2017-Oct-05 14:29N 51°57' E 004°09'0 0.0
2017-Oct-05 13:59N 51°57' E 004°09'0 0.0
2017-Oct-05 13:29N 51°57' E 004°09'0 0.0
2017-Oct-05 12:59N 51°57' E 004°09'0 0.0
2017-Oct-05 12:26N 51°57' E 004°09'0 0.0
2017-Oct-05 11:59N 51°57' E 004°09'0 0.0
2017-Oct-05 11:29N 51°57' E 004°09'0 0.0
2017-Oct-05 10:56N 51°57' E 004°09'0 0.0
2017-Oct-05 10:29N 51°57' E 004°09'0 0.0
2017-Oct-05 09:59N 51°57' E 004°09'0 0.0
2017-Oct-05 09:29N 51°57' E 004°09'0 0.0
2017-Oct-05 08:59N 51°57' E 004°09'0 0.0
2017-Oct-05 08:29N 51°57' E 004°09'0 0.0
2017-Oct-05 07:59N 51°57' E 004°09'0 0.0
2017-Oct-05 07:26N 51°57' E 004°09'0 0.0
2017-Oct-05 06:59N 51°57' E 004°09'0 0.0
2017-Oct-05 06:29N 51°57' E 004°09'0 0.0
2017-Oct-05 05:59N 51°57' E 004°09'0 0.0
2017-Oct-05 05:29N 51°57' E 004°09'0 0.0
2017-Oct-05 04:59N 51°57' E 004°09'0 0.0
2017-Oct-05 04:29N 51°57' E 004°09'0 0.0
2017-Oct-05 03:59N 51°57' E 004°09'0 0.0
2017-Oct-05 03:29N 51°57' E 004°09'0 0.0
2017-Oct-05 02:56N 51°57' E 004°09'0 0.0
2017-Oct-05 02:29N 51°57' E 004°09'0 0.0
2017-Oct-05 01:59N 51°57' E 004°09'0 0.0
2017-Oct-05 01:29N 51°57' E 004°09'0 0.0
2017-Oct-05 00:59N 51°57' E 004°09'0 0.0
2017-Oct-05 00:29N 51°57' E 004°09'0 0.0
2017-Oct-04 23:59N 51°57' E 004°09'0 0.0
2017-Oct-04 23:29N 51°57' E 004°09'0 0.0
2017-Oct-04 22:59N 51°57' E 004°09'0 0.0
2017-Oct-04 22:29N 51°57' E 004°09'0 0.0
2017-Oct-04 21:59N 51°57' E 004°09'0 0.0
2017-Oct-04 21:30N 51°57' E 004°09'0 0.0
2017-Oct-04 21:00N 51°57' E 004°09'0 0.0
2017-Oct-04 20:30N 51°57' E 004°09'1 2.4
2017-Oct-04 20:00N 51°58' E 004°08'1 1.5
2017-Oct-04 19:30N 51°58' E 004°09'611.2
2017-Oct-04 19:00N 51°54' E 004°16'4 8.6
2017-Oct-04 18:30N 51°51' E 004°21'510.0
2017-Oct-04 18:00N 51°50' E 004°28'510.6
2017-Oct-04 17:30N 51°48' E 004°37'5 9.1
2017-Oct-04 17:00N 51°44' E 004°38'3 5.2
2017-Oct-04 16:30N 51°41' E 004°36'0 0.2
2017-Oct-04 15:58N 51°41' E 004°36'0 0.0
2017-Oct-04 15:25N 51°41' E 004°36'0 0.0
2017-Oct-04 14:58N 51°41' E 004°36'0 0.0
2017-Oct-04 14:28N 51°41' E 004°36'0 0.0
2017-Oct-04 13:55N 51°41' E 004°36'0 0.0
2017-Oct-04 13:28N 51°41' E 004°36'0 0.0
2017-Oct-04 12:58N 51°41' E 004°36'0 0.0
2017-Oct-04 12:25N 51°41' E 004°36'0 0.0
2017-Oct-04 11:55N 51°41' E 004°36'0 0.0
2017-Oct-04 11:28N 51°41' E 004°36'0 0.0
2017-Oct-04 10:58N 51°41' E 004°36'0 0.0
2017-Oct-04 10:28N 51°41' E 004°36'0 0.0
2017-Oct-04 09:58N 51°41' E 004°36'0 0.0
2017-Oct-04 09:19N 51°41' E 004°36'0 0.0
2017-Oct-04 08:58N 51°41' E 004°36'0 0.0
2017-Oct-04 08:25N 51°41' E 004°36'0 0.0
2017-Oct-04 07:58N 51°41' E 004°36'0 0.0
2017-Oct-04 07:28N 51°41' E 004°36'0 0.0
2017-Oct-04 06:52N 51°41' E 004°36'0 0.0
2017-Oct-04 06:28N 51°41' E 004°36'0 0.0
2017-Oct-04 05:49N 51°41' E 004°36'0 0.0
2017-Oct-04 05:28N 51°41' E 004°36'0 0.0
2017-Oct-04 04:58N 51°41' E 004°36'0 0.0
2017-Oct-04 04:28N 51°41' E 004°36'0 0.0
2017-Oct-04 03:58N 51°41' E 004°36'0 0.0
2017-Oct-04 03:28N 51°41' E 004°36'0 0.0
2017-Oct-04 02:58N 51°41' E 004°36'0 0.0
2017-Oct-04 02:28N 51°41' E 004°36'0 0.0
2017-Oct-04 01:55N 51°41' E 004°36'0 0.0
2017-Oct-04 01:28N 51°41' E 004°36'0 0.0
2017-Oct-04 00:52N 51°41' E 004°36'0 0.0
2017-Oct-04 00:16N 51°41' E 004°36'0 0.0
2017-Oct-03 23:58N 51°41' E 004°36'0 0.0
2017-Oct-03 23:16N 51°41' E 004°36'0 0.0
2017-Oct-03 22:58N 51°41' E 004°36'0 0.0
2017-Oct-03 22:28N 51°41' E 004°36'0 0.0
2017-Oct-03 21:49N 51°41' E 004°36'0 0.0
2017-Oct-03 21:28N 51°41' E 004°36'0 0.0
2017-Oct-03 20:58N 51°41' E 004°36'0 0.0
2017-Oct-03 20:22N 51°41' E 004°36'0 0.0
2017-Oct-03 19:58N 51°41' E 004°36'0 0.0
2017-Oct-03 19:22N 51°41' E 004°36'0 0.0
2017-Oct-03 18:58N 51°41' E 004°36'0 0.0
2017-Oct-03 18:28N 51°41' E 004°36'0 0.0
2017-Oct-03 17:58N 51°41' E 004°36'0 0.0
2017-Oct-03 17:28N 51°41' E 004°36'0 0.0
2017-Oct-03 16:58N 51°41' E 004°36'0 0.0
2017-Oct-03 16:28N 51°41' E 004°36'0 0.0
2017-Oct-03 15:58N 51°41' E 004°36'0 0.0
2017-Oct-03 15:28N 51°41' E 004°36'0 0.0
2017-Oct-03 14:58N 51°41' E 004°36'0 0.0
2017-Oct-03 13:58N 51°41' E 004°36'0 0.0
2017-Oct-03 13:28N 51°41' E 004°36'0 0.0
2017-Oct-03 12:58N 51°41' E 004°36'0 0.0
2017-Oct-03 12:25N 51°41' E 004°36'0 0.0
2017-Oct-03 11:58N 51°41' E 004°36'0 0.0
2017-Oct-03 11:28N 51°41' E 004°36'0 0.0
2017-Oct-03 10:55N 51°41' E 004°36'0 0.0
2017-Oct-03 10:22N 51°41' E 004°36'  

Dump ship's entire track history